Terminal Aerodrome Forecast
Issued by NWS

Home | Current Version | Previous Version | Text Only | Print | Product List | Glossary On
Versions: 1 2 3 4 5 6 7 8 9 10 11 12
000
FTUS45 KREV 170500
TAFMMH
TAF
KMMH 170520Z 1706/1806 VRB05KT P6SM FEW180
     FM171500 12006KT P6SM FEW180
     FM172000 22012G24KT P6SM BKN180
     FM180200 27010G18KT P6SM SCT070 BKN180
      AMD NOT SKED 1706/1714=

USA.gov is the U.S. government's official web portal to all federal, state and local government web resources and services.